sensor_id;sensor_type;location;lat;lon;timestamp;pressure;altitude;pressure_sealevel;temperature;humidity
59825;BME280;45703;50.898;6.054;2023-02-15T00:00:12;101481.84;;;3.94;100.00
59825;BME280;45703;50.898;6.054;2023-02-15T00:02:37;101482.00;;;3.92;100.00
59825;BME280;45703;50.898;6.054;2023-02-15T00:05:03;101482.00;;;3.92;100.00
59825;BME280;45703;50.898;6.054;2023-02-15T00:07:28;101469.78;;;3.91;100.00
59825;BME280;45703;50.898;6.054;2023-02-15T00:09:53;101466.16;;;3.92;100.00
59825;BME280;45703;50.898;6.054;2023-02-15T00:12:19;101470.59;;;3.92;100.00
59825;BME280;45703;50.898;6.054;2023-02-15T00:14:44;101470.75;;;3.90;100.00
59825;BME280;45703;50.898;6.054;2023-02-15T00:17:09;101480.47;;;3.90;100.00
59825;BME280;45703;50.898;6.054;2023-02-15T00:19:34;101470.06;;;3.88;100.00
59825;BME280;45703;50.898;6.054;2023-02-15T00:22:00;101465.91;;;3.86;100.00
59825;BME280;45703;50.898;6.054;2023-02-15T00:24:25;101459.81;;;3.85;100.00
59825;BME280;45703;50.898;6.054;2023-02-15T00:26:51;101467.06;;;3.83;100.00
59825;BME280;45703;50.898;6.054;2023-02-15T00:29:16;101460.06;;;3.82;100.00
59825;BME280;45703;50.898;6.054;2023-02-15T00:31:42;101462.03;;;3.80;100.00
59825;BME280;45703;50.898;6.054;2023-02-15T00:34:15;101457.72;;;3.79;100.00
59825;BME280;45703;50.898;6.054;2023-02-15T00:36:41;101450.97;;;3.77;100.00
59825;BME280;45703;50.898;6.054;2023-02-15T00:39:06;101459.84;;;3.76;100.00
59825;BME280;45703;50.898;6.054;2023-02-15T00:41:32;101457.50;;;3.73;100.00
59825;BME280;45703;50.898;6.054;2023-02-15T00:43:57;101459.78;;;3.68;100.00
59825;BME280;45703;50.898;6.054;2023-02-15T00:46:22;101459.69;;;3.60;100.00
59825;BME280;45703;50.898;6.054;2023-02-15T00:48:48;101454.13;;;3.53;100.00
59825;BME280;45703;50.898;6.054;2023-02-15T00:51:13;101457.50;;;3.46;100.00
59825;BME280;45703;50.898;6.054;2023-02-15T00:53:39;101459.06;;;3.39;100.00
59825;BME280;45703;50.898;6.054;2023-02-15T00:56:04;101468.41;;;3.33;100.00
59825;BME280;45703;50.898;6.054;2023-02-15T00:58:29;101466.31;;;3.27;100.00
59825;BME280;45703;50.898;6.054;2023-02-15T01:00:54;101456.34;;;3.21;100.00
59825;BME280;45703;50.898;6.054;2023-02-15T01:03:20;101457.63;;;3.17;100.00
59825;BME280;45703;50.898;6.054;2023-02-15T01:05:46;101457.09;;;3.14;100.00
59825;BME280;45703;50.898;6.054;2023-02-15T01:08:12;101451.81;;;3.14;100.00
59825;BME280;45703;50.898;6.054;2023-02-15T01:10:37;101444.19;;;3.11;100.00
59825;BME280;45703;50.898;6.054;2023-02-15T01:13:03;101458.06;;;3.13;100.00
59825;BME280;45703;50.898;6.054;2023-02-15T01:15:28;101446.00;;;3.10;100.00
59825;BME280;45703;50.898;6.054;2023-02-15T01:17:53;101441.41;;;3.12;100.00
59825;BME280;45703;50.898;6.054;2023-02-15T01:20:23;101444.88;;;3.13;100.00
59825;BME280;45703;50.898;6.054;2023-02-15T01:22:48;101438.75;;;3.12;100.00
59825;BME280;45703;50.898;6.054;2023-02-15T01:25:15;101438.75;;;3.12;100.00
59825;BME280;45703;50.898;6.054;2023-02-15T01:27:40;101439.91;;;3.10;100.00
59825;BME280;45703;50.898;6.054;2023-02-15T01:30:06;101440.03;;;3.08;100.00
59825;BME280;45703;50.898;6.054;2023-02-15T01:32:31;101429.75;;;3.05;100.00
59825;BME280;45703;50.898;6.054;2023-02-15T01:34:57;101428.09;;;3.04;100.00
59825;BME280;45703;50.898;6.054;2023-02-15T01:37:22;101427.41;;;3.02;100.00
59825;BME280;45703;50.898;6.054;2023-02-15T01:39:47;101428.69;;;2.98;100.00
59825;BME280;45703;50.898;6.054;2023-02-15T01:42:13;101428.97;;;2.95;100.00
59825;BME280;45703;50.898;6.054;2023-02-15T01:44:57;101421.34;;;2.92;100.00
59825;BME280;45703;50.898;6.054;2023-02-15T01:47:29;101419.00;;;2.89;100.00
59825;BME280;45703;50.898;6.054;2023-02-15T01:50:02;101420.25;;;2.85;100.00
59825;BME280;45703;50.898;6.054;2023-02-15T01:52:29;101419.41;;;2.85;100.00
59825;BME280;45703;50.898;6.054;2023-02-15T01:54:54;101415.97;;;2.84;100.00
59825;BME280;45703;50.898;6.054;2023-02-15T01:57:22;101413.31;;;2.84;100.00
59825;BME280;45703;50.898;6.054;2023-02-15T01:59:48;101411.50;;;2.85;100.00
59825;BME280;45703;50.898;6.054;2023-02-15T02:02:17;101412.34;;;2.85;100.00
59825;BME280;45703;50.898;6.054;2023-02-15T02:04:49;101406.09;;;2.86;100.00
59825;BME280;45703;50.898;6.054;2023-02-15T02:07:16;101404.16;;;2.88;100.00
59825;BME280;45703;50.898;6.054;2023-02-15T02:09:42;101398.03;;;2.88;100.00
59825;BME280;45703;50.898;6.054;2023-02-15T02:12:07;101400.81;;;2.86;100.00
59825;BME280;45703;50.898;6.054;2023-02-15T02:14:33;101401.13;;;2.83;100.00
59825;BME280;45703;50.898;6.054;2023-02-15T02:25:05;101380.06;;;2.65;100.00
59825;BME280;45703;50.898;6.054;2023-02-15T02:27:49;101380.34;;;2.62;100.00
59825;BME280;45703;50.898;6.054;2023-02-15T02:35:44;101368.59;;;2.47;100.00
59825;BME280;45703;50.898;6.054;2023-02-15T02:38:32;101375.13;;;2.43;100.00
59825;BME280;45703;50.898;6.054;2023-02-15T02:41:20;101372.09;;;2.38;100.00
59825;BME280;45703;50.898;6.054;2023-02-15T02:46:56;101375.81;;;2.26;100.00
59825;BME280;45703;50.898;6.054;2023-02-15T02:49:35;101373.47;;;2.23;100.00
59825;BME280;45703;50.898;6.054;2023-02-15T02:52:02;101364.19;;;2.19;100.00
59825;BME280;45703;50.898;6.054;2023-02-15T02:54:28;101356.56;;;2.16;100.00
59825;BME280;45703;50.898;6.054;2023-02-15T02:56:53;101359.38;;;2.14;100.00
59825;BME280;45703;50.898;6.054;2023-02-15T02:59:21;101356.03;;;2.12;100.00
59825;BME280;45703;50.898;6.054;2023-02-15T03:04:15;101352.72;;;2.10;100.00
59825;BME280;45703;50.898;6.054;2023-02-15T03:06:50;101344.94;;;2.09;100.00
59825;BME280;45703;50.898;6.054;2023-02-15T03:12:07;101348.81;;;2.05;100.00
59825;BME280;45703;50.898;6.054;2023-02-15T03:14:33;101345.50;;;2.03;100.00
59825;BME280;45703;50.898;6.054;2023-02-15T03:16:59;101343.00;;;2.01;100.00
59825;BME280;45703;50.898;6.054;2023-02-15T03:19:26;101346.59;;;2.00;100.00
59825;BME280;45703;50.898;6.054;2023-02-15T03:21:56;101344.25;;;2.07;100.00
59825;BME280;45703;50.898;6.054;2023-02-15T03:27:18;101345.50;;;2.03;100.00
59825;BME280;45703;50.898;6.054;2023-02-15T03:29:49;101336.63;;;2.04;100.00
59825;BME280;45703;50.898;6.054;2023-02-15T03:32:17;101335.66;;;2.05;100.00
59825;BME280;45703;50.898;6.054;2023-02-15T03:34:43;101344.53;;;2.04;100.00
59825;BME280;45703;50.898;6.054;2023-02-15T03:39:45;101339.38;;;2.02;100.00
59825;BME280;45703;50.898;6.054;2023-02-15T03:42:26;101329.69;;;2.03;100.00
59825;BME280;45703;50.898;6.054;2023-02-15T03:45:02;101333.31;;;2.02;100.00
59825;BME280;45703;50.898;6.054;2023-02-15T03:47:36;101330.81;;;2.00;100.00
59825;BME280;45703;50.898;6.054;2023-02-15T03:50:04;101323.06;;;1.99;100.00
59825;BME280;45703;50.898;6.054;2023-02-15T03:52:52;101319.72;;;1.97;100.00
59825;BME280;45703;50.898;6.054;2023-02-15T03:55:18;101328.72;;;1.94;100.00
59825;BME280;45703;50.898;6.054;2023-02-15T03:57:43;101319.72;;;1.97;100.00
59825;BME280;45703;50.898;6.054;2023-02-15T04:00:28;101313.91;;;1.93;100.00
59825;BME280;45703;50.898;6.054;2023-02-15T04:03:22;101317.66;;;1.91;100.00
59825;BME280;45703;50.898;6.054;2023-02-15T04:05:49;101318.63;;;1.90;100.00
59825;BME280;45703;50.898;6.054;2023-02-15T04:08:14;101313.22;;;1.91;100.00
59825;BME280;45703;50.898;6.054;2023-02-15T04:10:39;101314.06;;;1.92;100.00
59825;BME280;45703;50.898;6.054;2023-02-15T04:13:17;101316.69;;;1.92;100.00
59825;BME280;45703;50.898;6.054;2023-02-15T04:15:42;101306.16;;;1.92;100.00
59825;BME280;45703;50.898;6.054;2023-02-15T04:18:26;101323.63;;;1.93;100.00
59825;BME280;45703;50.898;6.054;2023-02-15T04:21:10;101323.63;;;1.93;100.00
59825;BME280;45703;50.898;6.054;2023-02-15T04:23:54;101319.16;;;1.93;100.00
59825;BME280;45703;50.898;6.054;2023-02-15T04:26:38;101309.75;;;1.91;100.00
59825;BME280;45703;50.898;6.054;2023-02-15T04:29:03;101323.91;;;1.90;100.00
59825;BME280;45703;50.898;6.054;2023-02-15T04:31:28;101320.41;;;1.89;100.00
59825;BME280;45703;50.898;6.054;2023-02-15T04:33:53;101321.38;;;1.88;100.00
59825;BME280;45703;50.898;6.054;2023-02-15T04:36:19;101325.84;;;1.88;100.00
59825;BME280;45703;50.898;6.054;2023-02-15T04:38:44;101321.69;;;1.95;100.00
59825;BME280;45703;50.898;6.054;2023-02-15T04:41:09;101317.38;;;1.94;100.00
59825;BME280;45703;50.898;6.054;2023-02-15T04:43:36;101322.66;;;1.94;100.00
59825;BME280;45703;50.898;6.054;2023-02-15T04:46:01;101314.75;;;1.94;100.00
59825;BME280;45703;50.898;6.054;2023-02-15T04:48:26;101321.69;;;1.95;100.00
59825;BME280;45703;50.898;6.054;2023-02-15T04:50:52;101304.22;;;1.94;100.00
59825;BME280;45703;50.898;6.054;2023-02-15T04:53:17;101307.81;;;1.93;100.00
59825;BME280;45703;50.898;6.054;2023-02-15T04:55:43;101308.91;;;1.90;100.00
59825;BME280;45703;50.898;6.054;2023-02-15T04:58:08;101299.50;;;1.88;100.00
59825;BME280;45703;50.898;6.054;2023-02-15T05:00:33;101292.03;;;1.83;100.00
59825;BME280;45703;50.898;6.054;2023-02-15T05:02:58;101298.53;;;1.79;100.00
59825;BME280;45703;50.898;6.054;2023-02-15T05:05:24;101303.25;;;1.76;100.00
59825;BME280;45703;50.898;6.054;2023-02-15T05:07:49;101298.94;;;1.75;100.00
59825;BME280;45703;50.898;6.054;2023-02-15T05:10:14;101295.63;;;1.73;100.00
59825;BME280;45703;50.898;6.054;2023-02-15T05:12:40;101297.56;;;1.71;100.00
59825;BME280;45703;50.898;6.054;2023-02-15T05:15:05;101290.78;;;1.68;100.00
59825;BME280;45703;50.898;6.054;2023-02-15T05:17:30;101291.75;;;1.67;100.00
59825;BME280;45703;50.898;6.054;2023-02-15T05:19:55;101287.59;;;1.65;100.00
59825;BME280;45703;50.898;6.054;2023-02-15T05:22:21;101289.53;;;1.63;100.00
59825;BME280;45703;50.898;6.054;2023-02-15T05:24:46;101286.22;;;1.61;100.00
59825;BME280;45703;50.898;6.054;2023-02-15T05:27:30;101290.09;;;1.57;100.00
59825;BME280;45703;50.898;6.054;2023-02-15T05:30:14;101287.03;;;1.52;100.00
59825;BME280;45703;50.898;6.054;2023-02-15T05:32:39;101286.47;;;1.48;100.00
59825;BME280;45703;50.898;6.054;2023-02-15T05:35:05;101282.34;;;1.46;100.00
59825;BME280;45703;50.898;6.054;2023-02-15T05:37:30;101283.59;;;1.42;100.00
59825;BME280;45703;50.898;6.054;2023-02-15T05:39:56;101282.91;;;1.40;100.00
59825;BME280;45703;50.898;6.054;2023-02-15T05:42:21;101281.78;;;1.42;100.00
59825;BME280;45703;50.898;6.054;2023-02-15T05:44:46;101286.50;;;1.39;100.00
59825;BME280;45703;50.898;6.054;2023-02-15T05:47:11;101289.25;;;1.38;100.00
59825;BME280;45703;50.898;6.054;2023-02-15T05:49:37;101291.06;;;1.37;100.00
59825;BME280;45703;50.898;6.054;2023-02-15T05:52:02;101285.09;;;1.35;100.00
59825;BME280;45703;50.898;6.054;2023-02-15T05:54:27;101288.81;;;1.33;100.00
59825;BME280;45703;50.898;6.054;2023-02-15T05:56:53;101287.16;;;1.32;100.00
59825;BME280;45703;50.898;6.054;2023-02-15T05:59:18;101289.69;;;1.33;100.00
59825;BME280;45703;50.898;6.054;2023-02-15T06:01:44;101292.31;;;1.33;100.00
59825;BME280;45703;50.898;6.054;2023-02-15T06:04:09;101292.31;;;1.33;100.00
59825;BME280;45703;50.898;6.054;2023-02-15T06:06:34;101282.75;;;1.32;100.00
59825;BME280;45703;50.898;6.054;2023-02-15T06:08:59;101287.44;;;1.29;100.00
59825;BME280;45703;50.898;6.054;2023-02-15T06:11:25;101293.09;;;1.24;100.00
59825;BME280;45703;50.898;6.054;2023-02-15T06:13:50;101292.97;;;1.26;100.00
59825;BME280;45703;50.898;6.054;2023-02-15T06:16:15;101288.41;;;1.28;100.00
59825;BME280;45703;50.898;6.054;2023-02-15T06:18:41;101294.75;;;1.25;100.00
59825;BME280;45703;50.898;6.054;2023-02-15T06:21:06;101296.69;;;1.23;100.00
59825;BME280;45703;50.898;6.054;2023-02-15T06:23:32;101300.56;;;1.19;100.00
59825;BME280;45703;50.898;6.054;2023-02-15T06:25:57;101296.44;;;1.17;100.00
59825;BME280;45703;50.898;6.054;2023-02-15T06:28:22;101296.69;;;1.14;100.00
59825;BME280;45703;50.898;6.054;2023-02-15T06:30:50;101293.38;;;1.12;100.00
59825;BME280;45703;50.898;6.054;2023-02-15T06:33:15;101292.53;;;1.11;100.00
59825;BME280;45703;50.898;6.054;2023-02-15T06:35:40;101293.50;;;1.10;100.00
59825;BME280;45703;50.898;6.054;2023-02-15T06:38:06;101300.56;;;1.10;100.00
59825;BME280;45703;50.898;6.054;2023-02-15T06:40:31;101291.84;;;1.09;100.00
59825;BME280;45703;50.898;6.054;2023-02-15T06:42:56;101294.47;;;1.09;100.00
59825;BME280;45703;50.898;6.054;2023-02-15T06:45:21;101286.56;;;1.09;100.00
59825;BME280;45703;50.898;6.054;2023-02-15T06:47:47;101296.13;;;1.10;100.00
59825;BME280;45703;50.898;6.054;2023-02-15T06:50:12;101287.28;;;1.11;100.00
59825;BME280;45703;50.898;6.054;2023-02-15T06:52:37;101295.03;;;1.13;100.00
59825;BME280;45703;50.898;6.054;2023-02-15T06:55:03;101291.28;;;1.15;100.00
59825;BME280;45703;50.898;6.054;2023-02-15T06:57:28;101286.72;;;1.17;100.00
59825;BME280;45703;50.898;6.054;2023-02-15T06:59:53;101284.78;;;1.19;100.00
59825;BME280;45703;50.898;6.054;2023-02-15T07:02:19;101291.72;;;1.20;100.00
59825;BME280;45703;50.898;6.054;2023-02-15T07:04:44;101283.53;;;1.23;100.00
59825;BME280;45703;50.898;6.054;2023-02-15T07:07:10;101278.97;;;1.25;100.00
59825;BME280;45703;50.898;6.054;2023-02-15T07:09:36;101286.63;;;1.28;100.00
59825;BME280;45703;50.898;6.054;2023-02-15T07:12:01;101283.84;;;1.30;100.00
59825;BME280;45703;50.898;6.054;2023-02-15T07:14:45;101281.78;;;1.33;100.00
59825;BME280;45703;50.898;6.054;2023-02-15T07:17:10;101282.59;;;1.34;100.00
59825;BME280;45703;50.898;6.054;2023-02-15T07:19:36;101279.84;;;1.35;100.00
59825;BME280;45703;50.898;6.054;2023-02-15T07:22:01;101280.53;;;1.37;100.00
59825;BME280;45703;50.898;6.054;2023-02-15T07:24:27;101276.78;;;1.39;100.00
59825;BME280;45703;50.898;6.054;2023-02-15T07:26:52;101280.00;;;1.43;100.00
59825;BME280;45703;50.898;6.054;2023-02-15T07:29:17;101277.06;;;1.46;100.00
59825;BME280;45703;50.898;6.054;2023-02-15T07:31:43;101275.94;;;1.48;100.00
59825;BME280;45703;50.898;6.054;2023-02-15T07:34:10;101274.59;;;1.54;100.00
59825;BME280;45703;50.898;6.054;2023-02-15T07:36:35;101274.31;;;1.57;100.00
59825;BME280;45703;50.898;6.054;2023-02-15T07:39:01;101275.56;;;1.62;100.00
59825;BME280;45703;50.898;6.054;2023-02-15T07:41:26;101265.44;;;1.67;100.00
59825;BME280;45703;50.898;6.054;2023-02-15T07:43:51;101260.59;;;1.72;100.00
59825;BME280;45703;50.898;6.054;2023-02-15T07:46:16;101263.50;;;1.79;100.00
59825;BME280;45703;50.898;6.054;2023-02-15T07:48:43;101264.59;;;1.86;100.00
59825;BME280;45703;50.898;6.054;2023-02-15T07:51:09;101256.94;;;1.92;100.00
59825;BME280;45703;50.898;6.054;2023-02-15T07:53:35;101256.09;;;2.01;100.00
59825;BME280;45703;50.898;6.054;2023-02-15T07:56:02;101255.41;;;2.09;100.00
59825;BME280;45703;50.898;6.054;2023-02-15T07:58:27;101249.56;;;2.15;100.00
59825;BME280;45703;50.898;6.054;2023-02-15T08:01:12;101251.31;;;2.24;100.00
59825;BME280;45703;50.898;6.054;2023-02-15T08:03:37;101244.53;;;2.31;100.00
59825;BME280;45703;50.898;6.054;2023-02-15T08:06:02;101235.88;;;2.38;100.00
59825;BME280;45703;50.898;6.054;2023-02-15T08:08:27;101232.53;;;2.46;100.00
59825;BME280;45703;50.898;6.054;2023-02-15T08:10:59;101235.28;;;2.54;100.00
59825;BME280;45703;50.898;6.054;2023-02-15T08:13:44;101233.72;;;2.61;100.00
59825;BME280;45703;50.898;6.054;2023-02-15T08:16:18;101240.06;;;2.68;100.00
59825;BME280;45703;50.898;6.054;2023-02-15T08:18:44;101236.53;;;2.77;100.00
59825;BME280;45703;50.898;6.054;2023-02-15T08:21:09;101233.16;;;2.84;100.00
59825;BME280;45703;50.898;6.054;2023-02-15T08:23:34;101231.47;;;2.92;100.00
59825;BME280;45703;50.898;6.054;2023-02-15T08:25:59;101234.19;;;3.00;100.00
59825;BME280;45703;50.898;6.054;2023-02-15T08:28:25;101233.28;;;3.09;100.00
59825;BME280;45703;50.898;6.054;2023-02-15T08:30:50;101228.75;;;3.19;100.00
59825;BME280;45703;50.898;6.054;2023-02-15T08:33:15;101231.16;;;3.30;100.00
59825;BME280;45703;50.898;6.054;2023-02-15T08:35:43;101229.31;;;3.40;100.00
59825;BME280;45703;50.898;6.054;2023-02-15T08:38:08;101225.75;;;3.49;100.00
59825;BME280;45703;50.898;6.054;2023-02-15T08:40:33;101234.78;;;3.64;100.00
59825;BME280;45703;50.898;6.054;2023-02-15T08:42:59;101233.56;;;3.76;100.00
59825;BME280;45703;50.898;6.054;2023-02-15T08:45:25;101241.25;;;3.87;100.00
59825;BME280;45703;50.898;6.054;2023-02-15T08:47:50;101235.72;;;3.98;100.00
59825;BME280;45703;50.898;6.054;2023-02-15T08:50:15;101240.72;;;4.09;100.00
59825;BME280;45703;50.898;6.054;2023-02-15T08:52:40;101234.50;;;4.18;100.00
59825;BME280;45703;50.898;6.054;2023-02-15T08:55:06;101229.94;;;4.28;99.82
59825;BME280;45703;50.898;6.054;2023-02-15T08:57:31;101227.88;;;4.39;99.45
59825;BME280;45703;50.898;6.054;2023-02-15T08:59:56;101228.56;;;4.49;99.29
59825;BME280;45703;50.898;6.054;2023-02-15T09:02:22;101233.75;;;4.59;99.14
59825;BME280;45703;50.898;6.054;2023-02-15T09:04:47;101228.16;;;4.70;98.97
59825;BME280;45703;50.898;6.054;2023-02-15T09:07:12;101227.38;;;4.77;98.72
59825;BME280;45703;50.898;6.054;2023-02-15T09:09:37;101215.00;;;4.86;98.18
59825;BME280;45703;50.898;6.054;2023-02-15T09:12:03;101220.00;;;4.97;98.04
59825;BME280;45703;50.898;6.054;2023-02-15T09:14:28;101222.47;;;5.06;97.93
59825;BME280;45703;50.898;6.054;2023-02-15T09:16:53;101210.09;;;5.15;97.85
59825;BME280;45703;50.898;6.054;2023-02-15T09:19:20;101207.31;;;5.24;97.74
59825;BME280;45703;50.898;6.054;2023-02-15T09:21:46;101199.19;;;5.34;97.42
59825;BME280;45703;50.898;6.054;2023-02-15T09:24:12;101202.53;;;5.44;97.54
59825;BME280;45703;50.898;6.054;2023-02-15T09:26:40;101205.84;;;5.54;97.45
59825;BME280;45703;50.898;6.054;2023-02-15T09:29:05;101203.84;;;5.63;97.12
59825;BME280;45703;50.898;6.054;2023-02-15T09:31:32;101212.44;;;5.73;96.72
59825;BME280;45703;50.898;6.054;2023-02-15T09:33:59;101202.72;;;5.82;96.51
59825;BME280;45703;50.898;6.054;2023-02-15T09:36:34;101205.22;;;5.91;96.06
59825;BME280;45703;50.898;6.054;2023-02-15T09:39:01;101207.50;;;6.02;96.12
59825;BME280;45703;50.898;6.054;2023-02-15T09:46:44;101197.63;;;6.35;93.83
59825;BME280;45703;50.898;6.054;2023-02-15T09:52:22;101198.19;;;6.61;94.14
59825;BME280;45703;50.898;6.054;2023-02-15T09:54:46;101188.69;;;6.74;93.78
59825;BME280;45703;50.898;6.054;2023-02-15T09:57:19;101194.25;;;6.87;92.10
59825;BME280;45703;50.898;6.054;2023-02-15T10:02:24;101200.06;;;7.13;90.86
59825;BME280;45703;50.898;6.054;2023-02-15T10:07:41;101199.56;;;7.40;87.17
59825;BME280;45703;50.898;6.054;2023-02-15T10:10:17;101196.78;;;7.56;88.94
59825;BME280;45703;50.898;6.054;2023-02-15T10:12:55;101203.97;;;7.70;88.31
59825;BME280;45703;50.898;6.054;2023-02-15T10:20:24;101205.25;;;8.11;86.45
59825;BME280;45703;50.898;6.054;2023-02-15T10:23:07;101200.13;;;8.24;84.36
59825;BME280;45703;50.898;6.054;2023-02-15T10:28:05;101206.13;;;8.55;77.19
59825;BME280;45703;50.898;6.054;2023-02-15T10:30:34;101205.09;;;8.70;79.30
59825;BME280;45703;50.898;6.054;2023-02-15T10:33:02;101213.69;;;8.86;80.30
59825;BME280;45703;50.898;6.054;2023-02-15T10:38:18;101201.94;;;9.16;80.57
59825;BME280;45703;50.898;6.054;2023-02-15T10:43:18;101194.03;;;9.44;78.60
59825;BME280;45703;50.898;6.054;2023-02-15T10:45:57;101196.63;;;9.58;77.85
59825;BME280;45703;50.898;6.054;2023-02-15T10:48:37;101198.41;;;9.72;75.01
59825;BME280;45703;50.898;6.054;2023-02-15T10:51:08;101195.66;;;9.87;73.98
59825;BME280;45703;50.898;6.054;2023-02-15T10:56:23;101197.97;;;10.17;74.26
59825;BME280;45703;50.898;6.054;2023-02-15T11:06:19;101191.66;;;10.65;82.74
59825;BME280;45703;50.898;6.054;2023-02-15T11:08:46;101193.38;;;10.79;80.11
59825;BME280;45703;50.898;6.054;2023-02-15T11:11:20;101186.81;;;10.88;82.28
59825;BME280;45703;50.898;6.054;2023-02-15T11:13:48;101188.53;;;11.02;84.16
59825;BME280;45703;50.898;6.054;2023-02-15T11:16:16;101184.88;;;11.16;83.10
59825;BME280;45703;50.898;6.054;2023-02-15T11:18:47;101180.97;;;11.25;80.27
59825;BME280;45703;50.898;6.054;2023-02-15T11:21:28;101175.44;;;11.33;84.92
59825;BME280;45703;50.898;6.054;2023-02-15T11:23:57;101171.94;;;11.32;84.63
59825;BME280;45703;50.898;6.054;2023-02-15T11:26:31;101170.50;;;11.36;85.44
59825;BME280;45703;50.898;6.054;2023-02-15T11:28:59;101167.63;;;11.38;85.92
59825;BME280;45703;50.898;6.054;2023-02-15T11:31:40;101163.13;;;11.38;85.24
59825;BME280;45703;50.898;6.054;2023-02-15T11:34:11;101160.22;;;11.40;85.93
59825;BME280;45703;50.898;6.054;2023-02-15T11:36:39;101153.66;;;11.42;86.49
59825;BME280;45703;50.898;6.054;2023-02-15T11:39:09;101152.19;;;11.40;86.60
59825;BME280;45703;50.898;6.054;2023-02-15T11:41:37;101142.13;;;11.35;86.97
59825;BME280;45703;50.898;6.054;2023-02-15T11:44:10;101141.28;;;11.35;87.15
59825;BME280;45703;50.898;6.054;2023-02-15T11:46:40;101136.34;;;11.32;87.42
59825;BME280;45703;50.898;6.054;2023-02-15T11:49:20;101140.47;;;11.28;86.78
59825;BME280;45703;50.898;6.054;2023-02-15T11:51:47;101136.16;;;11.27;86.97
59825;BME280;45703;50.898;6.054;2023-02-15T11:54:15;101136.38;;;11.25;86.46
59825;BME280;45703;50.898;6.054;2023-02-15T11:56:40;101130.19;;;11.25;84.66
59825;BME280;45703;50.898;6.054;2023-02-15T11:59:08;101126.47;;;11.26;86.57
59825;BME280;45703;50.898;6.054;2023-02-15T12:04:06;101121.97;;;11.26;87.16
59825;BME280;45703;50.898;6.054;2023-02-15T12:06:33;101119.91;;;11.28;87.66
59825;BME280;45703;50.898;6.054;2023-02-15T12:09:18;101123.22;;;11.30;87.11
59825;BME280;45703;50.898;6.054;2023-02-15T12:11:47;101123.59;;;11.34;86.76
59825;BME280;45703;50.898;6.054;2023-02-15T12:14:12;101127.50;;;11.38;86.41
59825;BME280;45703;50.898;6.054;2023-02-15T12:16:59;101130.41;;;11.43;87.26
59825;BME280;45703;50.898;6.054;2023-02-15T12:21:51;101118.28;;;11.53;87.30
59825;BME280;45703;50.898;6.054;2023-02-15T12:24:22;101113.38;;;11.56;87.23
59825;BME280;45703;50.898;6.054;2023-02-15T12:29:35;101106.59;;;11.60;87.18
59825;BME280;45703;50.898;6.054;2023-02-15T12:32:04;101105.34;;;11.63;82.60
59825;BME280;45703;50.898;6.054;2023-02-15T12:34:37;101102.47;;;11.64;81.74
59825;BME280;45703;50.898;6.054;2023-02-15T12:37:29;101100.59;;;11.71;86.96
59825;BME280;45703;50.898;6.054;2023-02-15T12:39:54;101103.69;;;11.75;85.64
59825;BME280;45703;50.898;6.054;2023-02-15T12:42:20;101104.94;;;11.79;87.05
59825;BME280;45703;50.898;6.054;2023-02-15T12:44:59;101098.56;;;11.80;87.42
59825;BME280;45703;50.898;6.054;2023-02-15T12:47:25;101099.97;;;11.82;86.72
59825;BME280;45703;50.898;6.054;2023-02-15T12:52:29;101094.81;;;11.87;87.29
59825;BME280;45703;50.898;6.054;2023-02-15T12:54:54;101096.03;;;11.91;87.49
59825;BME280;45703;50.898;6.054;2023-02-15T12:57:21;101083.28;;;11.93;87.08
59825;BME280;45703;50.898;6.054;2023-02-15T12:59:50;101095.19;;;11.97;86.51
59825;BME280;45703;50.898;6.054;2023-02-15T13:02:27;101093.16;;;11.99;83.00
59825;BME280;45703;50.898;6.054;2023-02-15T13:04:54;101092.31;;;12.05;86.77
59825;BME280;45703;50.898;6.054;2023-02-15T13:07:21;101089.84;;;12.10;86.88
59825;BME280;45703;50.898;6.054;2023-02-15T13:09:47;101084.06;;;12.13;87.34
59825;BME280;45703;50.898;6.054;2023-02-15T13:12:26;101087.97;;;12.17;86.81
59825;BME280;45703;50.898;6.054;2023-02-15T13:14:53;101083.22;;;12.19;84.85
59825;BME280;45703;50.898;6.054;2023-02-15T13:17:21;101071.03;;;12.23;82.01
59825;BME280;45703;50.898;6.054;2023-02-15T13:19:52;101074.50;;;12.30;86.37
59825;BME280;45703;50.898;6.054;2023-02-15T13:22:58;101083.16;;;12.32;83.72
59825;BME280;45703;50.898;6.054;2023-02-15T13:25:19;101070.78;;;12.38;86.16
59825;BME280;45703;50.898;6.054;2023-02-15T13:27:47;101070.13;;;12.42;85.45
59825;BME280;45703;50.898;6.054;2023-02-15T13:30:19;101066.22;;;12.45;86.00
59825;BME280;45703;50.898;6.054;2023-02-15T13:32:47;101071.34;;;12.46;85.59
59825;BME280;45703;50.898;6.054;2023-02-15T13:35:14;101069.09;;;12.50;84.92
59825;BME280;45703;50.898;6.054;2023-02-15T13:37:53;101069.91;;;12.50;83.39
59825;BME280;45703;50.898;6.054;2023-02-15T13:40:32;101063.53;;;12.51;86.05
59825;BME280;45703;50.898;6.054;2023-02-15T13:45:39;101049.09;;;12.52;84.62
59825;BME280;45703;50.898;6.054;2023-02-15T13:56:35;101043.06;;;12.63;85.38
59825;BME280;45703;50.898;6.054;2023-02-15T13:58:40;101044.69;;;12.64;82.75
59825;BME280;45703;50.898;6.054;2023-02-15T14:01:12;101041.59;;;12.67;85.28
59825;BME280;45703;50.898;6.054;2023-02-15T14:06:25;101038.03;;;12.73;85.46
59825;BME280;45703;50.898;6.054;2023-02-15T14:11:26;101042.09;;;12.82;84.50
59825;BME280;45703;50.898;6.054;2023-02-15T14:16:48;101041.22;;;12.88;82.95
59825;BME280;45703;50.898;6.054;2023-02-15T14:19:59;101047.03;;;12.92;84.55
59825;BME280;45703;50.898;6.054;2023-02-15T14:27:18;101043.31;;;12.93;77.53
59825;BME280;45703;50.898;6.054;2023-02-15T14:29:51;101047.84;;;12.92;79.90
59825;BME280;45703;50.898;6.054;2023-02-15T14:33:05;101041.44;;;12.93;78.55
59825;BME280;45703;50.898;6.054;2023-02-15T14:35:05;101037.13;;;12.92;79.68